<?xml version="1.0" encoding="UTF-8" standalone="yes"?>
<gpx xmlns="http://www.topografix.com/GPX/1/1" xmlns:xsi="http://www.w3.org/2001/XMLSchema-instance" version="1.1" creator="MagicMaps Tour Explorer" xsi:schemaLocation="http://www.topografix.com/GPX/1/1 http://www.topografix.com/GPX/1/1/gpx.xsd">
  <trk>
    <name>rehleitenkopf-s</name>
    <trkseg>
      <trkpt lat="47.717711907" lon="12.127480740">
        <ele>495.2</ele>
        <time>2025-05-12T09:26:16Z</time>
      </trkpt>
      <trkpt lat="47.717705788" lon="12.127492223">
        <ele>495.2</ele>
        <time>2025-05-12T09:26:51Z</time>
      </trkpt>
      <trkpt lat="47.717705453" lon="12.127528014">
        <ele>495.2</ele>
        <time>2025-05-12T09:27:36Z</time>
      </trkpt>
      <trkpt lat="47.717628591" lon="12.127703866">
        <ele>496.2</ele>
        <time>2025-05-12T09:28:08Z</time>
      </trkpt>
      <trkpt lat="47.717581820" lon="12.127904780">
        <ele>497.6</ele>
        <time>2025-05-12T09:28:28Z</time>
      </trkpt>
      <trkpt lat="47.717534210" lon="12.128273668">
        <ele>500.0</ele>
        <time>2025-05-12T09:28:51Z</time>
      </trkpt>
      <trkpt lat="47.717436813" lon="12.128424207">
        <ele>501.9</ele>
        <time>2025-05-12T09:29:09Z</time>
      </trkpt>
      <trkpt lat="47.717122994" lon="12.128610956">
        <ele>508.2</ele>
        <time>2025-05-12T09:29:53Z</time>
      </trkpt>
      <trkpt lat="47.717033979" lon="12.128730230">
        <ele>510.6</ele>
        <time>2025-05-12T09:30:08Z</time>
      </trkpt>
      <trkpt lat="47.717004139" lon="12.128802314">
        <ele>512.5</ele>
        <time>2025-05-12T09:30:24Z</time>
      </trkpt>
      <trkpt lat="47.716965917" lon="12.128980933">
        <ele>514.4</ele>
        <time>2025-05-12T09:30:48Z</time>
      </trkpt>
      <trkpt lat="47.716884278" lon="12.129146727">
        <ele>516.4</ele>
        <time>2025-05-12T09:31:36Z</time>
      </trkpt>
      <trkpt lat="47.716788473" lon="12.129563643">
        <ele>520.2</ele>
        <time>2025-05-12T09:31:59Z</time>
      </trkpt>
      <trkpt lat="47.716692919" lon="12.129751146">
        <ele>523.1</ele>
        <time>2025-05-12T09:32:14Z</time>
      </trkpt>
      <trkpt lat="47.716406928" lon="12.129965639">
        <ele>527.4</ele>
        <time>2025-05-12T09:33:05Z</time>
      </trkpt>
      <trkpt lat="47.716293773" lon="12.130078962">
        <ele>530.8</ele>
        <time>2025-05-12T09:33:20Z</time>
      </trkpt>
      <trkpt lat="47.716113059" lon="12.130341986">
        <ele>536.5</ele>
        <time>2025-05-12T09:33:46Z</time>
      </trkpt>
      <trkpt lat="47.715953384" lon="12.130468469">
        <ele>540.9</ele>
        <time>2025-05-12T09:34:01Z</time>
      </trkpt>
      <trkpt lat="47.715838719" lon="12.130540134">
        <ele>542.3</ele>
        <time>2025-05-12T09:34:18Z</time>
      </trkpt>
      <trkpt lat="47.715568906" lon="12.130607273">
        <ele>548.1</ele>
        <time>2025-05-12T09:34:56Z</time>
      </trkpt>
      <trkpt lat="47.715548035" lon="12.130512977">
        <ele>550.0</ele>
        <time>2025-05-12T09:35:04Z</time>
      </trkpt>
      <trkpt lat="47.715610815" lon="12.130392529">
        <ele>552.4</ele>
        <time>2025-05-12T09:35:19Z</time>
      </trkpt>
      <trkpt lat="47.715719780" lon="12.130255485">
        <ele>555.8</ele>
        <time>2025-05-12T09:35:38Z</time>
      </trkpt>
      <trkpt lat="47.715791780" lon="12.130125984">
        <ele>558.7</ele>
        <time>2025-05-12T09:35:54Z</time>
      </trkpt>
      <trkpt lat="47.715808544" lon="12.129973015">
        <ele>562.5</ele>
        <time>2025-05-12T09:36:32Z</time>
      </trkpt>
      <trkpt lat="47.715777280" lon="12.129821302">
        <ele>565.4</ele>
        <time>2025-05-12T09:36:49Z</time>
      </trkpt>
      <trkpt lat="47.715789601" lon="12.129716529">
        <ele>568.8</ele>
        <time>2025-05-12T09:37:03Z</time>
      </trkpt>
      <trkpt lat="47.715815334" lon="12.129603205">
        <ele>570.2</ele>
        <time>2025-05-12T09:37:27Z</time>
      </trkpt>
      <trkpt lat="47.715884652" lon="12.129428107">
        <ele>573.6</ele>
        <time>2025-05-12T09:37:45Z</time>
      </trkpt>
      <trkpt lat="47.715778453" lon="12.129379911">
        <ele>576.5</ele>
        <time>2025-05-12T09:37:58Z</time>
      </trkpt>
      <trkpt lat="47.715469915" lon="12.129534977">
        <ele>582.2</ele>
        <time>2025-05-12T09:38:34Z</time>
      </trkpt>
      <trkpt lat="47.715368075" lon="12.129509496">
        <ele>585.1</ele>
        <time>2025-05-12T09:38:49Z</time>
      </trkpt>
      <trkpt lat="47.715183673" lon="12.129506059">
        <ele>591.4</ele>
        <time>2025-05-12T09:39:15Z</time>
      </trkpt>
      <trkpt lat="47.714987369" lon="12.129685516">
        <ele>594.2</ele>
        <time>2025-05-12T09:39:46Z</time>
      </trkpt>
      <trkpt lat="47.714977898" lon="12.129755253">
        <ele>596.6</ele>
        <time>2025-05-12T09:40:01Z</time>
      </trkpt>
      <trkpt lat="47.714929869" lon="12.129773274">
        <ele>597.6</ele>
        <time>2025-05-12T09:40:30Z</time>
      </trkpt>
      <trkpt lat="47.714867257" lon="12.129860027">
        <ele>601.0</ele>
        <time>2025-05-12T09:41:02Z</time>
      </trkpt>
      <trkpt lat="47.714832388" lon="12.129932195">
        <ele>603.9</ele>
        <time>2025-05-12T09:41:17Z</time>
      </trkpt>
      <trkpt lat="47.714730967" lon="12.129980056">
        <ele>606.7</ele>
        <time>2025-05-12T09:41:36Z</time>
      </trkpt>
      <trkpt lat="47.714689393" lon="12.129877293">
        <ele>609.6</ele>
        <time>2025-05-12T09:41:54Z</time>
      </trkpt>
      <trkpt lat="47.714693500" lon="12.129749637">
        <ele>612.5</ele>
        <time>2025-05-12T09:42:11Z</time>
      </trkpt>
      <trkpt lat="47.714603813" lon="12.129311180">
        <ele>621.1</ele>
        <time>2025-05-12T09:43:47Z</time>
      </trkpt>
      <trkpt lat="47.714606328" lon="12.129090317">
        <ele>627.4</ele>
        <time>2025-05-12T09:44:25Z</time>
      </trkpt>
      <trkpt lat="47.714728788" lon="12.128734253">
        <ele>634.6</ele>
        <time>2025-05-12T09:45:38Z</time>
      </trkpt>
      <trkpt lat="47.714747982" lon="12.128617410">
        <ele>638.0</ele>
        <time>2025-05-12T09:45:52Z</time>
      </trkpt>
      <trkpt lat="47.714799866" lon="12.128519844">
        <ele>640.9</ele>
        <time>2025-05-12T09:46:07Z</time>
      </trkpt>
      <trkpt lat="47.714825263" lon="12.128400905">
        <ele>644.2</ele>
        <time>2025-05-12T09:46:24Z</time>
      </trkpt>
      <trkpt lat="47.715050988" lon="12.127936129">
        <ele>652.4</ele>
        <time>2025-05-12T09:47:18Z</time>
      </trkpt>
      <trkpt lat="47.715181410" lon="12.127863876">
        <ele>652.9</ele>
        <time>2025-05-12T09:47:33Z</time>
      </trkpt>
      <trkpt lat="47.715291800" lon="12.127689701">
        <ele>653.8</ele>
        <time>2025-05-12T09:47:53Z</time>
      </trkpt>
      <trkpt lat="47.715344606" lon="12.127433382">
        <ele>656.2</ele>
        <time>2025-05-12T09:48:12Z</time>
      </trkpt>
      <trkpt lat="47.715364806" lon="12.127249232">
        <ele>659.1</ele>
        <time>2025-05-12T09:48:29Z</time>
      </trkpt>
      <trkpt lat="47.715420127" lon="12.127078408">
        <ele>662.0</ele>
        <time>2025-05-12T09:48:46Z</time>
      </trkpt>
      <trkpt lat="47.715400346" lon="12.126863161">
        <ele>663.9</ele>
        <time>2025-05-12T09:49:03Z</time>
      </trkpt>
      <trkpt lat="47.715353658" lon="12.126734667">
        <ele>665.9</ele>
        <time>2025-05-12T09:49:21Z</time>
      </trkpt>
      <trkpt lat="47.715243855" lon="12.126682112">
        <ele>667.8</ele>
        <time>2025-05-12T09:49:55Z</time>
      </trkpt>
      <trkpt lat="47.715021986" lon="12.126868945">
        <ele>674.5</ele>
        <time>2025-05-12T09:50:37Z</time>
      </trkpt>
      <trkpt lat="47.714925511" lon="12.126918314">
        <ele>677.4</ele>
        <time>2025-05-12T09:50:51Z</time>
      </trkpt>
      <trkpt lat="47.714794837" lon="12.126902975">
        <ele>680.3</ele>
        <time>2025-05-12T09:51:08Z</time>
      </trkpt>
      <trkpt lat="47.714719148" lon="12.126830304">
        <ele>681.7</ele>
        <time>2025-05-12T09:51:19Z</time>
      </trkpt>
      <trkpt lat="47.714551175" lon="12.126458986">
        <ele>687.5</ele>
        <time>2025-05-12T09:51:56Z</time>
      </trkpt>
      <trkpt lat="47.714493675" lon="12.126394864">
        <ele>688.4</ele>
        <time>2025-05-12T09:52:05Z</time>
      </trkpt>
      <trkpt lat="47.714252863" lon="12.126331916">
        <ele>689.4</ele>
        <time>2025-05-12T09:52:26Z</time>
      </trkpt>
      <trkpt lat="47.714169798" lon="12.126254970">
        <ele>690.4</ele>
        <time>2025-05-12T09:52:44Z</time>
      </trkpt>
      <trkpt lat="47.713995036" lon="12.125875102">
        <ele>689.9</ele>
        <time>2025-05-12T09:53:26Z</time>
      </trkpt>
      <trkpt lat="47.713823458" lon="12.125597745">
        <ele>691.3</ele>
        <time>2025-05-12T09:53:48Z</time>
      </trkpt>
      <trkpt lat="47.713621538" lon="12.125198431">
        <ele>695.6</ele>
        <time>2025-05-12T09:54:22Z</time>
      </trkpt>
      <trkpt lat="47.713437304" lon="12.124989638">
        <ele>699.0</ele>
        <time>2025-05-12T09:54:42Z</time>
      </trkpt>
      <trkpt lat="47.713217363" lon="12.124559646">
        <ele>703.8</ele>
        <time>2025-05-12T09:55:17Z</time>
      </trkpt>
      <trkpt lat="47.713012509" lon="12.124288827">
        <ele>709.1</ele>
        <time>2025-05-12T09:55:51Z</time>
      </trkpt>
      <trkpt lat="47.712642616" lon="12.123549795">
        <ele>718.7</ele>
        <time>2025-05-12T09:56:59Z</time>
      </trkpt>
      <trkpt lat="47.712393422" lon="12.123209154">
        <ele>722.6</ele>
        <time>2025-05-12T09:57:31Z</time>
      </trkpt>
      <trkpt lat="47.712180689" lon="12.122765333">
        <ele>726.9</ele>
        <time>2025-05-12T09:58:06Z</time>
      </trkpt>
      <trkpt lat="47.711797385" lon="12.122139707">
        <ele>735.5</ele>
        <time>2025-05-12T09:58:58Z</time>
      </trkpt>
      <trkpt lat="47.711541401" lon="12.121677361">
        <ele>745.2</ele>
        <time>2025-05-12T09:59:51Z</time>
      </trkpt>
      <trkpt lat="47.711476022" lon="12.121689515">
        <ele>746.6</ele>
        <time>2025-05-12T10:00:09Z</time>
      </trkpt>
      <trkpt lat="47.711432017" lon="12.121769478">
        <ele>747.1</ele>
        <time>2025-05-12T10:00:16Z</time>
      </trkpt>
      <trkpt lat="47.711408380" lon="12.122006854">
        <ele>750.0</ele>
        <time>2025-05-12T10:00:35Z</time>
      </trkpt>
      <trkpt lat="47.711417768" lon="12.122070221">
        <ele>750.9</ele>
        <time>2025-05-12T10:00:43Z</time>
      </trkpt>
      <trkpt lat="47.711350210" lon="12.122338191">
        <ele>753.3</ele>
        <time>2025-05-12T10:01:03Z</time>
      </trkpt>
      <trkpt lat="47.711254237" lon="12.122573722">
        <ele>756.7</ele>
        <time>2025-05-12T10:01:21Z</time>
      </trkpt>
      <trkpt lat="47.711175363" lon="12.122842278">
        <ele>759.6</ele>
        <time>2025-05-12T10:01:41Z</time>
      </trkpt>
      <trkpt lat="47.711123731" lon="12.123503611">
        <ele>768.2</ele>
        <time>2025-05-12T10:02:31Z</time>
      </trkpt>
      <trkpt lat="47.711040080" lon="12.124143317">
        <ele>775.4</ele>
        <time>2025-05-12T10:03:17Z</time>
      </trkpt>
      <trkpt lat="47.710969923" lon="12.124269549">
        <ele>777.8</ele>
        <time>2025-05-12T10:03:31Z</time>
      </trkpt>
      <trkpt lat="47.710902113" lon="12.124445569">
        <ele>781.2</ele>
        <time>2025-05-12T10:03:48Z</time>
      </trkpt>
      <trkpt lat="47.710930947" lon="12.124802135">
        <ele>787.0</ele>
        <time>2025-05-12T10:04:19Z</time>
      </trkpt>
      <trkpt lat="47.710907059" lon="12.125160210">
        <ele>793.2</ele>
        <time>2025-05-12T10:04:47Z</time>
      </trkpt>
      <trkpt lat="47.710910747" lon="12.125384007">
        <ele>796.6</ele>
        <time>2025-05-12T10:05:04Z</time>
      </trkpt>
      <trkpt lat="47.710841261" lon="12.125575030">
        <ele>799.5</ele>
        <time>2025-05-12T10:05:22Z</time>
      </trkpt>
      <trkpt lat="47.710713772" lon="12.125713583">
        <ele>802.8</ele>
        <time>2025-05-12T10:05:41Z</time>
      </trkpt>
      <trkpt lat="47.710439600" lon="12.125926148">
        <ele>808.6</ele>
        <time>2025-05-12T10:06:15Z</time>
      </trkpt>
      <trkpt lat="47.710303897" lon="12.125963196">
        <ele>810.5</ele>
        <time>2025-05-12T10:06:31Z</time>
      </trkpt>
      <trkpt lat="47.710001897" lon="12.125970488">
        <ele>813.9</ele>
        <time>2025-05-12T10:07:49Z</time>
      </trkpt>
      <trkpt lat="47.709964011" lon="12.125863535">
        <ele>814.4</ele>
        <time>2025-05-12T10:08:18Z</time>
      </trkpt>
      <trkpt lat="47.709894944" lon="12.125745183">
        <ele>815.3</ele>
        <time>2025-05-12T10:08:30Z</time>
      </trkpt>
      <trkpt lat="47.709467970" lon="12.125518620">
        <ele>818.2</ele>
        <time>2025-05-12T10:09:46Z</time>
      </trkpt>
      <trkpt lat="47.709295470" lon="12.125401860">
        <ele>821.6</ele>
        <time>2025-05-12T10:10:48Z</time>
      </trkpt>
      <trkpt lat="47.709028088" lon="12.125291722">
        <ele>822.1</ele>
        <time>2025-05-12T10:11:15Z</time>
      </trkpt>
      <trkpt lat="47.708800519" lon="12.125230199">
        <ele>822.5</ele>
        <time>2025-05-12T10:11:35Z</time>
      </trkpt>
      <trkpt lat="47.708375473" lon="12.125237323">
        <ele>825.4</ele>
        <time>2025-05-12T10:12:17Z</time>
      </trkpt>
      <trkpt lat="47.708191322" lon="12.125114445">
        <ele>827.8</ele>
        <time>2025-05-12T10:12:39Z</time>
      </trkpt>
      <trkpt lat="47.708042963" lon="12.125043785">
        <ele>829.8</ele>
        <time>2025-05-12T10:12:57Z</time>
      </trkpt>
      <trkpt lat="47.707745237" lon="12.124969019">
        <ele>833.6</ele>
        <time>2025-05-12T10:13:32Z</time>
      </trkpt>
      <trkpt lat="47.707600314" lon="12.124873381">
        <ele>837.0</ele>
        <time>2025-05-12T10:13:53Z</time>
      </trkpt>
      <trkpt lat="47.707476933" lon="12.124606418">
        <ele>841.8</ele>
        <time>2025-05-12T10:14:27Z</time>
      </trkpt>
      <trkpt lat="47.707404262" lon="12.124562329">
        <ele>844.2</ele>
        <time>2025-05-12T10:14:45Z</time>
      </trkpt>
      <trkpt lat="47.707301415" lon="12.124422099">
        <ele>849.5</ele>
        <time>2025-05-12T10:15:16Z</time>
      </trkpt>
      <trkpt lat="47.707037637" lon="12.124613291">
        <ele>856.7</ele>
        <time>2025-05-12T10:16:06Z</time>
      </trkpt>
      <trkpt lat="47.706897156" lon="12.124679508">
        <ele>860.0</ele>
        <time>2025-05-12T10:16:26Z</time>
      </trkpt>
      <trkpt lat="47.706768578" lon="12.124676071">
        <ele>862.4</ele>
        <time>2025-05-12T10:16:47Z</time>
      </trkpt>
      <trkpt lat="47.706687776" lon="12.124705659">
        <ele>863.4</ele>
        <time>2025-05-12T10:17:08Z</time>
      </trkpt>
      <trkpt lat="47.706618374" lon="12.124784868">
        <ele>865.8</ele>
        <time>2025-05-12T10:17:23Z</time>
      </trkpt>
      <trkpt lat="47.706564227" lon="12.124887882">
        <ele>869.6</ele>
        <time>2025-05-12T10:18:02Z</time>
      </trkpt>
      <trkpt lat="47.706435816" lon="12.124997098">
        <ele>874.5</ele>
        <time>2025-05-12T10:18:58Z</time>
      </trkpt>
      <trkpt lat="47.706446042" lon="12.125010090">
        <ele>875.4</ele>
        <time>2025-05-12T10:19:39Z</time>
      </trkpt>
      <trkpt lat="47.706359709" lon="12.125018053">
        <ele>876.9</ele>
        <time>2025-05-12T10:20:23Z</time>
      </trkpt>
      <trkpt lat="47.706245379" lon="12.125149313">
        <ele>883.1</ele>
        <time>2025-05-12T10:20:46Z</time>
      </trkpt>
      <trkpt lat="47.706069863" lon="12.125179237">
        <ele>888.9</ele>
        <time>2025-05-12T10:21:17Z</time>
      </trkpt>
      <trkpt lat="47.705941536" lon="12.125210837">
        <ele>891.3</ele>
        <time>2025-05-12T10:21:35Z</time>
      </trkpt>
      <trkpt lat="47.705904739" lon="12.125128442">
        <ele>893.7</ele>
        <time>2025-05-12T10:22:03Z</time>
      </trkpt>
      <trkpt lat="47.705931226" lon="12.124769194">
        <ele>899.9</ele>
        <time>2025-05-12T10:22:56Z</time>
      </trkpt>
      <trkpt lat="47.705797115" lon="12.124455878">
        <ele>908.6</ele>
        <time>2025-05-12T10:23:39Z</time>
      </trkpt>
      <trkpt lat="47.705707094" lon="12.124351859">
        <ele>911.0</ele>
        <time>2025-05-12T10:23:55Z</time>
      </trkpt>
      <trkpt lat="47.705672979" lon="12.124242894">
        <ele>913.4</ele>
        <time>2025-05-12T10:24:10Z</time>
      </trkpt>
      <trkpt lat="47.705732491" lon="12.124098809">
        <ele>916.3</ele>
        <time>2025-05-12T10:24:33Z</time>
      </trkpt>
      <trkpt lat="47.705814969" lon="12.124063857">
        <ele>919.2</ele>
        <time>2025-05-12T10:24:50Z</time>
      </trkpt>
      <trkpt lat="47.705877917" lon="12.123952378">
        <ele>921.6</ele>
        <time>2025-05-12T10:25:05Z</time>
      </trkpt>
      <trkpt lat="47.705884287" lon="12.123796223">
        <ele>924.0</ele>
        <time>2025-05-12T10:25:21Z</time>
      </trkpt>
      <trkpt lat="47.705908679" lon="12.123661861">
        <ele>925.4</ele>
        <time>2025-05-12T10:25:33Z</time>
      </trkpt>
      <trkpt lat="47.705861237" lon="12.123559015">
        <ele>927.8</ele>
        <time>2025-05-12T10:25:52Z</time>
      </trkpt>
      <trkpt lat="47.705766605" lon="12.123595057">
        <ele>931.2</ele>
        <time>2025-05-12T10:26:08Z</time>
      </trkpt>
      <trkpt lat="47.705553705" lon="12.123593465">
        <ele>936.9</ele>
        <time>2025-05-12T10:26:44Z</time>
      </trkpt>
      <trkpt lat="47.705401238" lon="12.123480812">
        <ele>943.2</ele>
        <time>2025-05-12T10:27:20Z</time>
      </trkpt>
      <trkpt lat="47.705295710" lon="12.123381151">
        <ele>946.1</ele>
        <time>2025-05-12T10:27:39Z</time>
      </trkpt>
      <trkpt lat="47.705235025" lon="12.123286687">
        <ele>948.0</ele>
        <time>2025-05-12T10:27:55Z</time>
      </trkpt>
      <trkpt lat="47.705193283" lon="12.123200437">
        <ele>949.9</ele>
        <time>2025-05-12T10:28:09Z</time>
      </trkpt>
      <trkpt lat="47.705129078" lon="12.122918554">
        <ele>955.2</ele>
        <time>2025-05-12T10:28:56Z</time>
      </trkpt>
      <trkpt lat="47.705090018" lon="12.122842697">
        <ele>957.6</ele>
        <time>2025-05-12T10:29:15Z</time>
      </trkpt>
      <trkpt lat="47.705028243" lon="12.122792406">
        <ele>958.6</ele>
        <time>2025-05-12T10:29:58Z</time>
      </trkpt>
      <trkpt lat="47.704763627" lon="12.122797519">
        <ele>963.9</ele>
        <time>2025-05-12T10:30:37Z</time>
      </trkpt>
      <trkpt lat="47.704651812" lon="12.122896928">
        <ele>965.8</ele>
        <time>2025-05-12T10:30:53Z</time>
      </trkpt>
      <trkpt lat="47.704594061" lon="12.122882595">
        <ele>967.7</ele>
        <time>2025-05-12T10:31:07Z</time>
      </trkpt>
      <trkpt lat="47.704704367" lon="12.122619068">
        <ele>972.0</ele>
        <time>2025-05-12T10:31:38Z</time>
      </trkpt>
      <trkpt lat="47.704904191" lon="12.122372137">
        <ele>978.8</ele>
        <time>2025-05-12T10:32:26Z</time>
      </trkpt>
      <trkpt lat="47.705128156" lon="12.122195447">
        <ele>985.0</ele>
        <time>2025-05-12T10:33:09Z</time>
      </trkpt>
      <trkpt lat="47.705141651" lon="12.122151023">
        <ele>986.5</ele>
        <time>2025-05-12T10:33:23Z</time>
      </trkpt>
      <trkpt lat="47.704901760" lon="12.122117830">
        <ele>994.6</ele>
        <time>2025-05-12T10:34:59Z</time>
      </trkpt>
      <trkpt lat="47.704857923" lon="12.122055134">
        <ele>996.5</ele>
        <time>2025-05-12T10:35:12Z</time>
      </trkpt>
      <trkpt lat="47.704773853" lon="12.122050105">
        <ele>998.5</ele>
        <time>2025-05-12T10:35:29Z</time>
      </trkpt>
      <trkpt lat="47.704704367" lon="12.122068377">
        <ele>999.9</ele>
        <time>2025-05-12T10:35:43Z</time>
      </trkpt>
      <trkpt lat="47.704622811" lon="12.122138869">
        <ele>1002.8</ele>
        <time>2025-05-12T10:36:02Z</time>
      </trkpt>
      <trkpt lat="47.704562042" lon="12.122067455">
        <ele>1005.7</ele>
        <time>2025-05-12T10:36:17Z</time>
      </trkpt>
      <trkpt lat="47.704505464" lon="12.122124704">
        <ele>1006.6</ele>
        <time>2025-05-12T10:36:51Z</time>
      </trkpt>
      <trkpt lat="47.704450646" lon="12.122063264">
        <ele>1009.5</ele>
        <time>2025-05-12T10:37:09Z</time>
      </trkpt>
      <trkpt lat="47.704242943" lon="12.121940553">
        <ele>1015.3</ele>
        <time>2025-05-12T10:37:47Z</time>
      </trkpt>
      <trkpt lat="47.704115286" lon="12.121958742">
        <ele>1018.2</ele>
        <time>2025-05-12T10:38:05Z</time>
      </trkpt>
      <trkpt lat="47.703986457" lon="12.122035604">
        <ele>1020.6</ele>
        <time>2025-05-12T10:38:24Z</time>
      </trkpt>
      <trkpt lat="47.703904565" lon="12.121968297">
        <ele>1022.5</ele>
        <time>2025-05-12T10:38:38Z</time>
      </trkpt>
      <trkpt lat="47.703794008" lon="12.121943235">
        <ele>1024.4</ele>
        <time>2025-05-12T10:38:55Z</time>
      </trkpt>
      <trkpt lat="47.703660652" lon="12.121992018">
        <ele>1026.8</ele>
        <time>2025-05-12T10:39:12Z</time>
      </trkpt>
      <trkpt lat="47.703420343" lon="12.121935608">
        <ele>1029.7</ele>
        <time>2025-05-12T10:39:41Z</time>
      </trkpt>
      <trkpt lat="47.703258404" lon="12.121837791">
        <ele>1033.1</ele>
        <time>2025-05-12T10:40:08Z</time>
      </trkpt>
      <trkpt lat="47.703160420" lon="12.121640900">
        <ele>1035.5</ele>
        <time>2025-05-12T10:40:27Z</time>
      </trkpt>
      <trkpt lat="47.703048103" lon="12.121135890">
        <ele>1046.0</ele>
        <time>2025-05-12T10:41:23Z</time>
      </trkpt>
      <trkpt lat="47.702989094" lon="12.121007563">
        <ele>1048.5</ele>
        <time>2025-05-12T10:41:41Z</time>
      </trkpt>
      <trkpt lat="47.702963613" lon="12.120911926">
        <ele>1051.8</ele>
        <time>2025-05-12T10:41:56Z</time>
      </trkpt>
      <trkpt lat="47.702945173" lon="12.120820060">
        <ele>1054.2</ele>
        <time>2025-05-12T10:42:11Z</time>
      </trkpt>
      <trkpt lat="47.702953722" lon="12.120806649">
        <ele>1054.2</ele>
        <time>2025-05-12T10:42:43Z</time>
      </trkpt>
      <trkpt lat="47.702875351" lon="12.120482353">
        <ele>1059.5</ele>
        <time>2025-05-12T10:43:26Z</time>
      </trkpt>
      <trkpt lat="47.702865293" lon="12.120315889">
        <ele>1061.4</ele>
        <time>2025-05-12T10:43:54Z</time>
      </trkpt>
      <trkpt lat="47.702685753" lon="12.119887406">
        <ele>1071.5</ele>
        <time>2025-05-12T10:45:15Z</time>
      </trkpt>
      <trkpt lat="47.702609310" lon="12.119750362">
        <ele>1074.4</ele>
        <time>2025-05-12T10:45:33Z</time>
      </trkpt>
      <trkpt lat="47.702496909" lon="12.119599152">
        <ele>1077.8</ele>
        <time>2025-05-12T10:45:53Z</time>
      </trkpt>
      <trkpt lat="47.702403953" lon="12.119538551">
        <ele>1078.7</ele>
        <time>2025-05-12T10:46:04Z</time>
      </trkpt>
      <trkpt lat="47.702115281" lon="12.119374601">
        <ele>1081.6</ele>
        <time>2025-05-12T10:46:41Z</time>
      </trkpt>
      <trkpt lat="47.702092398" lon="12.119378792">
        <ele>1082.6</ele>
        <time>2025-05-12T10:46:53Z</time>
      </trkpt>
      <trkpt lat="47.702037748" lon="12.119327243">
        <ele>1082.1</ele>
        <time>2025-05-12T10:47:46Z</time>
      </trkpt>
      <trkpt lat="47.701999778" lon="12.119331183">
        <ele>1082.6</ele>
        <time>2025-05-12T10:48:10Z</time>
      </trkpt>
      <trkpt lat="47.701696102" lon="12.119193133">
        <ele>1084.0</ele>
        <time>2025-05-12T10:48:44Z</time>
      </trkpt>
      <trkpt lat="47.701502563" lon="12.119153822">
        <ele>1085.0</ele>
        <time>2025-05-12T10:49:04Z</time>
      </trkpt>
      <trkpt lat="47.701443806" lon="12.119112667">
        <ele>1086.0</ele>
        <time>2025-05-12T10:49:35Z</time>
      </trkpt>
      <trkpt lat="47.701343810" lon="12.118994649">
        <ele>1086.9</ele>
        <time>2025-05-12T10:49:51Z</time>
      </trkpt>
      <trkpt lat="47.701332411" lon="12.118850565">
        <ele>1088.3</ele>
        <time>2025-05-12T10:50:05Z</time>
      </trkpt>
      <trkpt lat="47.701585460" lon="12.118704049">
        <ele>1091.2</ele>
        <time>2025-05-12T10:50:33Z</time>
      </trkpt>
      <trkpt lat="47.701714290" lon="12.118545380">
        <ele>1093.2</ele>
        <time>2025-05-12T10:50:53Z</time>
      </trkpt>
      <trkpt lat="47.701684283" lon="12.118381178">
        <ele>1094.1</ele>
        <time>2025-05-12T10:51:06Z</time>
      </trkpt>
      <trkpt lat="47.701235851" lon="12.118007345">
        <ele>1099.9</ele>
        <time>2025-05-12T10:52:04Z</time>
      </trkpt>
      <trkpt lat="47.700926224" lon="12.117560171">
        <ele>1105.2</ele>
        <time>2025-05-12T10:53:17Z</time>
      </trkpt>
      <trkpt lat="47.700520456" lon="12.117047701">
        <ele>1110.0</ele>
        <time>2025-05-12T10:54:15Z</time>
      </trkpt>
      <trkpt lat="47.700292887" lon="12.116820887">
        <ele>1109.5</ele>
        <time>2025-05-12T10:54:55Z</time>
      </trkpt>
      <trkpt lat="47.700312836" lon="12.116823066">
        <ele>1109.5</ele>
        <time>2025-05-12T10:54:57Z</time>
      </trkpt>
      <trkpt lat="47.700285343" lon="12.116671521">
        <ele>1110.5</ele>
        <time>2025-05-12T10:55:22Z</time>
      </trkpt>
      <trkpt lat="47.700291630" lon="12.116660290">
        <ele>1110.0</ele>
        <time>2025-05-12T10:55:37Z</time>
      </trkpt>
      <trkpt lat="47.700370336" lon="12.116741091">
        <ele>1110.0</ele>
        <time>2025-05-12T10:56:01Z</time>
      </trkpt>
      <trkpt lat="47.700442310" lon="12.116689764">
        <ele>1111.9</ele>
      </trkpt>
      <trkpt lat="47.700516717" lon="12.116600889">
        <ele>1114.3</ele>
      </trkpt>
      <trkpt lat="47.700594743" lon="12.116378925">
        <ele>1118.1</ele>
      </trkpt>
      <trkpt lat="47.700785282" lon="12.115990374">
        <ele>1125.3</ele>
      </trkpt>
      <trkpt lat="47.700833822" lon="12.115859963">
        <ele>1127.9</ele>
      </trkpt>
      <trkpt lat="47.701020381" lon="12.115617808">
        <ele>1135.4</ele>
      </trkpt>
      <trkpt lat="47.701050951" lon="12.115486324">
        <ele>1138.2</ele>
      </trkpt>
      <trkpt lat="47.700943197" lon="12.115146632">
        <ele>1142.3</ele>
      </trkpt>
      <trkpt lat="47.701024417" lon="12.115138145">
        <ele>1144.4</ele>
      </trkpt>
      <trkpt lat="47.701263378" lon="12.115285701">
        <ele>1149.6</ele>
      </trkpt>
      <trkpt lat="47.701029536" lon="12.114618555">
        <ele>1159.2</ele>
      </trkpt>
      <trkpt lat="47.700837666" lon="12.114393826">
        <ele>1162.0</ele>
      </trkpt>
      <trkpt lat="47.700554505" lon="12.114216979">
        <ele>1165.9</ele>
      </trkpt>
      <trkpt lat="47.700272790" lon="12.113986898">
        <ele>1173.6</ele>
      </trkpt>
      <trkpt lat="47.699812525" lon="12.113372929">
        <ele>1185.4</ele>
      </trkpt>
      <trkpt lat="47.699455731" lon="12.112925098">
        <ele>1190.3</ele>
      </trkpt>
      <trkpt lat="47.699286884" lon="12.112515132">
        <ele>1194.5</ele>
      </trkpt>
      <trkpt lat="47.698996952" lon="12.111924663">
        <ele>1198.6</ele>
      </trkpt>
      <trkpt lat="47.698330888" lon="12.110272065">
        <ele>1218.0</ele>
      </trkpt>
      <trkpt lat="47.698363659" lon="12.109727488">
        <ele>1227.9</ele>
      </trkpt>
      <trkpt lat="47.698440989" lon="12.109198891">
        <ele>1238.7</ele>
      </trkpt>
      <trkpt lat="47.698892451" lon="12.108479273">
        <ele>1261.6</ele>
      </trkpt>
      <trkpt lat="47.699056697" lon="12.108395735">
        <ele>1268.8</ele>
      </trkpt>
      <trkpt lat="47.699294945" lon="12.108569872">
        <ele>1274.1</ele>
      </trkpt>
      <trkpt lat="47.699909416" lon="12.109139649">
        <ele>1283.5</ele>
      </trkpt>
      <trkpt lat="47.700156648" lon="12.109314328">
        <ele>1285.6</ele>
      </trkpt>
      <trkpt lat="47.700378009" lon="12.109447477">
        <ele>1286.8</ele>
      </trkpt>
      <trkpt lat="47.700710793" lon="12.109453954">
        <ele>1289.0</ele>
      </trkpt>
      <trkpt lat="47.700560663" lon="12.108685178">
        <ele>1297.0</ele>
      </trkpt>
      <trkpt lat="47.700603495" lon="12.108101183">
        <ele>1298.1</ele>
      </trkpt>
      <trkpt lat="47.700609732" lon="12.106875145">
        <ele>1304.9</ele>
      </trkpt>
      <trkpt lat="47.700686688" lon="12.106359830">
        <ele>1308.4</ele>
      </trkpt>
      <trkpt lat="47.700812141" lon="12.106047356">
        <ele>1308.6</ele>
      </trkpt>
      <trkpt lat="47.701008386" lon="12.105779081">
        <ele>1307.0</ele>
      </trkpt>
      <trkpt lat="47.701339036" lon="12.105532124">
        <ele>1303.8</ele>
      </trkpt>
      <trkpt lat="47.701829243" lon="12.105374634">
        <ele>1312.8</ele>
      </trkpt>
      <trkpt lat="47.702125036" lon="12.105085606">
        <ele>1317.3</ele>
      </trkpt>
      <trkpt lat="47.702165660" lon="12.104914719">
        <ele>1315.7</ele>
      </trkpt>
      <trkpt lat="47.702469356" lon="12.104666150">
        <ele>1322.4</ele>
      </trkpt>
      <trkpt lat="47.702555982" lon="12.104458002">
        <ele>1320.9</ele>
      </trkpt>
      <trkpt lat="47.702627884" lon="12.104128999">
        <ele>1320.2</ele>
      </trkpt>
      <trkpt lat="47.702626107" lon="12.103862272">
        <ele>1317.7</ele>
      </trkpt>
      <trkpt lat="47.702585869" lon="12.103686578">
        <ele>1308.6</ele>
      </trkpt>
      <trkpt lat="47.702621422" lon="12.104035297">
        <ele>1319.9</ele>
      </trkpt>
      <trkpt lat="47.702606671" lon="12.104247718">
        <ele>1320.7</ele>
      </trkpt>
      <trkpt lat="47.702433057" lon="12.104677323">
        <ele>1321.9</ele>
      </trkpt>
      <trkpt lat="47.702192613" lon="12.104916321">
        <ele>1317.1</ele>
      </trkpt>
      <trkpt lat="47.702116773" lon="12.105058453">
        <ele>1316.4</ele>
      </trkpt>
      <trkpt lat="47.701847933" lon="12.105349083">
        <ele>1312.8</ele>
      </trkpt>
      <trkpt lat="47.701064095" lon="12.105715739">
        <ele>1305.5</ele>
      </trkpt>
      <trkpt lat="47.700811059" lon="12.106087283">
        <ele>1308.9</ele>
      </trkpt>
      <trkpt lat="47.700638160" lon="12.106490250">
        <ele>1308.2</ele>
      </trkpt>
      <trkpt lat="47.700593894" lon="12.107127483">
        <ele>1302.8</ele>
      </trkpt>
      <trkpt lat="47.700588087" lon="12.107673690">
        <ele>1300.1</ele>
      </trkpt>
      <trkpt lat="47.700558137" lon="12.108778341">
        <ele>1296.8</ele>
      </trkpt>
      <trkpt lat="47.700693907" lon="12.109412957">
        <ele>1289.4</ele>
      </trkpt>
      <trkpt lat="47.700593995" lon="12.109447002">
        <ele>1289.0</ele>
      </trkpt>
      <trkpt lat="47.700432276" lon="12.109437376">
        <ele>1287.7</ele>
      </trkpt>
      <trkpt lat="47.700120710" lon="12.109312189">
        <ele>1285.1</ele>
      </trkpt>
      <trkpt lat="47.699758847" lon="12.109050706">
        <ele>1281.4</ele>
      </trkpt>
      <trkpt lat="47.699188937" lon="12.108496914">
        <ele>1271.7</ele>
      </trkpt>
      <trkpt lat="47.698993445" lon="12.108405302">
        <ele>1266.3</ele>
      </trkpt>
      <trkpt lat="47.698844642" lon="12.108583070">
        <ele>1258.3</ele>
      </trkpt>
      <trkpt lat="47.698423381" lon="12.109184514">
        <ele>1238.6</ele>
      </trkpt>
      <trkpt lat="47.698366547" lon="12.109621020">
        <ele>1229.7</ele>
      </trkpt>
      <trkpt lat="47.698325153" lon="12.110151754">
        <ele>1220.3</ele>
      </trkpt>
      <trkpt lat="47.698412787" lon="12.110570200">
        <ele>1213.1</ele>
      </trkpt>
      <trkpt lat="47.699063046" lon="12.112141882">
        <ele>1196.5</ele>
      </trkpt>
      <trkpt lat="47.699437762" lon="12.112924028">
        <ele>1190.1</ele>
      </trkpt>
      <trkpt lat="47.699804624" lon="12.113332467">
        <ele>1186.3</ele>
      </trkpt>
      <trkpt lat="47.700055412" lon="12.113707333">
        <ele>1180.3</ele>
      </trkpt>
      <trkpt lat="47.700325974" lon="12.114016729">
        <ele>1172.8</ele>
      </trkpt>
      <trkpt lat="47.700563490" lon="12.114217514">
        <ele>1165.9</ele>
      </trkpt>
      <trkpt lat="47.700749630" lon="12.114321925">
        <ele>1163.6</ele>
      </trkpt>
      <trkpt lat="47.700952293" lon="12.114480643">
        <ele>1161.5</ele>
      </trkpt>
      <trkpt lat="47.701107141" lon="12.114743158">
        <ele>1158.3</ele>
      </trkpt>
      <trkpt lat="47.701272362" lon="12.115286237">
        <ele>1149.9</ele>
      </trkpt>
      <trkpt lat="47.700961527" lon="12.115134395">
        <ele>1143.0</ele>
      </trkpt>
      <trkpt lat="47.701050228" lon="12.115512942">
        <ele>1137.8</ele>
      </trkpt>
      <trkpt lat="47.700834183" lon="12.115846654">
        <ele>1128.0</ele>
      </trkpt>
      <trkpt lat="47.700802889" lon="12.116004754">
        <ele>1125.5</ele>
      </trkpt>
      <trkpt lat="47.700556996" lon="12.116443326">
        <ele>1116.9</ele>
      </trkpt>
      <trkpt lat="47.700487593" lon="12.116679135">
        <ele>1112.9</ele>
      </trkpt>
      <trkpt lat="47.700402392" lon="12.116834018">
        <ele>1109.4</ele>
      </trkpt>
      <trkpt lat="47.700591724" lon="12.117151916">
        <ele>1107.9</ele>
      </trkpt>
      <trkpt lat="47.700948863" lon="12.117586476">
        <ele>1104.1</ele>
      </trkpt>
      <trkpt lat="47.701156885" lon="12.117878834">
        <ele>1100.2</ele>
      </trkpt>
      <trkpt lat="47.701410553" lon="12.118147258">
        <ele>1097.2</ele>
      </trkpt>
      <trkpt lat="47.701657769" lon="12.118321984">
        <ele>1097.6</ele>
      </trkpt>
      <trkpt lat="47.701742906" lon="12.118500367">
        <ele>1094.2</ele>
      </trkpt>
      <trkpt lat="47.701539820" lon="12.118688206">
        <ele>1089.0</ele>
      </trkpt>
      <trkpt lat="47.700985622" lon="12.118881742">
        <ele>1082.9</ele>
      </trkpt>
      <trkpt lat="47.700670809" lon="12.118876277">
        <ele>1080.8</ele>
      </trkpt>
      <trkpt lat="47.700363170" lon="12.118937894">
        <ele>1076.6</ele>
      </trkpt>
      <trkpt lat="47.700167981" lon="12.119166189">
        <ele>1071.3</ele>
      </trkpt>
      <trkpt lat="47.700066187" lon="12.119600014">
        <ele>1066.2</ele>
      </trkpt>
      <trkpt lat="47.700024384" lon="12.120144064">
        <ele>1062.6</ele>
      </trkpt>
      <trkpt lat="47.700274639" lon="12.121198787">
        <ele>1056.8</ele>
      </trkpt>
      <trkpt lat="47.700418675" lon="12.121527324">
        <ele>1051.8</ele>
      </trkpt>
      <trkpt lat="47.700635232" lon="12.122166800">
        <ele>1042.8</ele>
      </trkpt>
      <trkpt lat="47.700763834" lon="12.122401106">
        <ele>1037.9</ele>
      </trkpt>
      <trkpt lat="47.700995976" lon="12.122468304">
        <ele>1032.9</ele>
      </trkpt>
      <trkpt lat="47.701464608" lon="12.122442992">
        <ele>1023.5</ele>
      </trkpt>
      <trkpt lat="47.701785142" lon="12.122568798">
        <ele>1019.0</ele>
      </trkpt>
      <trkpt lat="47.702058942" lon="12.122758466">
        <ele>1015.1</ele>
      </trkpt>
      <trkpt lat="47.702157689" lon="12.123097643">
        <ele>1009.7</ele>
      </trkpt>
      <trkpt lat="47.702139640" lon="12.123429837">
        <ele>1006.7</ele>
      </trkpt>
      <trkpt lat="47.702040369" lon="12.123770506">
        <ele>1007.6</ele>
      </trkpt>
      <trkpt lat="47.702001726" lon="12.124528057">
        <ele>997.4</ele>
      </trkpt>
      <trkpt lat="47.702083052" lon="12.125506079">
        <ele>983.9</ele>
      </trkpt>
      <trkpt lat="47.702148032" lon="12.125763255">
        <ele>980.2</ele>
      </trkpt>
      <trkpt lat="47.702337064" lon="12.125761235">
        <ele>974.1</ele>
      </trkpt>
      <trkpt lat="47.702459665" lon="12.125555274">
        <ele>970.6</ele>
      </trkpt>
      <trkpt lat="47.702496778" lon="12.125184226">
        <ele>971.5</ele>
      </trkpt>
      <trkpt lat="47.702496138" lon="12.124877574">
        <ele>973.6</ele>
      </trkpt>
      <trkpt lat="47.702538605" lon="12.124640155">
        <ele>974.1</ele>
      </trkpt>
      <trkpt lat="47.702624179" lon="12.124471970">
        <ele>973.6</ele>
      </trkpt>
      <trkpt lat="47.702753586" lon="12.124346400">
        <ele>974.4</ele>
      </trkpt>
      <trkpt lat="47.702916391" lon="12.124316144">
        <ele>973.8</ele>
      </trkpt>
      <trkpt lat="47.703210696" lon="12.124413734">
        <ele>967.9</ele>
      </trkpt>
      <trkpt lat="47.703420235" lon="12.124319617">
        <ele>963.7</ele>
      </trkpt>
      <trkpt lat="47.703679775" lon="12.124041851">
        <ele>960.7</ele>
      </trkpt>
      <trkpt lat="47.704086605" lon="12.123972862">
        <ele>952.0</ele>
      </trkpt>
      <trkpt lat="47.704386267" lon="12.124204088">
        <ele>935.1</ele>
      </trkpt>
      <trkpt lat="47.704440814" lon="12.124513976">
        <ele>925.8</ele>
      </trkpt>
      <trkpt lat="47.704298069" lon="12.124798731">
        <ele>924.8</ele>
      </trkpt>
      <trkpt lat="47.704084451" lon="12.125372535">
        <ele>917.7</ele>
      </trkpt>
      <trkpt lat="47.704031183" lon="12.125675971">
        <ele>913.1</ele>
      </trkpt>
      <trkpt lat="47.704113768" lon="12.125947541">
        <ele>906.7</ele>
      </trkpt>
      <trkpt lat="47.704192359" lon="12.126365520">
        <ele>901.4</ele>
      </trkpt>
      <trkpt lat="47.704196170" lon="12.126885676">
        <ele>894.9</ele>
      </trkpt>
      <trkpt lat="47.704295994" lon="12.127184944">
        <ele>888.2</ele>
      </trkpt>
      <trkpt lat="47.704391553" lon="12.127310649">
        <ele>884.1</ele>
      </trkpt>
      <trkpt lat="47.704764263" lon="12.127172985">
        <ele>877.6</ele>
      </trkpt>
      <trkpt lat="47.704915180" lon="12.127248678">
        <ele>874.8</ele>
      </trkpt>
      <trkpt lat="47.705010645" lon="12.127707671">
        <ele>869.4</ele>
      </trkpt>
      <trkpt lat="47.705101845" lon="12.127993098">
        <ele>865.1</ele>
      </trkpt>
      <trkpt lat="47.705324635" lon="12.128073099">
        <ele>860.4</ele>
      </trkpt>
      <trkpt lat="47.705667852" lon="12.128026994">
        <ele>853.0</ele>
      </trkpt>
      <trkpt lat="47.705846447" lon="12.128077685">
        <ele>847.6</ele>
      </trkpt>
      <trkpt lat="47.706166610" lon="12.128216848">
        <ele>837.7</ele>
      </trkpt>
      <trkpt lat="47.706337673" lon="12.128213761">
        <ele>833.0</ele>
      </trkpt>
      <trkpt lat="47.706716922" lon="12.127836512">
        <ele>832.4</ele>
      </trkpt>
      <trkpt lat="47.706969207" lon="12.127824956">
        <ele>825.7</ele>
      </trkpt>
      <trkpt lat="47.707314870" lon="12.128018976">
        <ele>817.9</ele>
      </trkpt>
      <trkpt lat="47.707528312" lon="12.128111753">
        <ele>814.8</ele>
      </trkpt>
      <trkpt lat="47.708440722" lon="12.126993137">
        <ele>809.0</ele>
      </trkpt>
      <trkpt lat="47.708736113" lon="12.127050821">
        <ele>809.1</ele>
      </trkpt>
      <trkpt lat="47.708959359" lon="12.126784201">
        <ele>808.3</ele>
      </trkpt>
      <trkpt lat="47.709153473" lon="12.126595832">
        <ele>808.1</ele>
      </trkpt>
      <trkpt lat="47.709341144" lon="12.126313746">
        <ele>808.5</ele>
      </trkpt>
      <trkpt lat="47.709608584" lon="12.126076431">
        <ele>806.1</ele>
      </trkpt>
      <trkpt lat="47.709971583" lon="12.125964831">
        <ele>803.3</ele>
      </trkpt>
      <trkpt lat="47.710369793" lon="12.125882002">
        <ele>801.3</ele>
      </trkpt>
      <trkpt lat="47.710847862" lon="12.125510623">
        <ele>781.3</ele>
      </trkpt>
      <trkpt lat="47.710928981" lon="12.124515488">
        <ele>768.3</ele>
      </trkpt>
      <trkpt lat="47.711042681" lon="12.123975629">
        <ele>769.1</ele>
      </trkpt>
      <trkpt lat="47.711161538" lon="12.122916079">
        <ele>753.7</ele>
      </trkpt>
      <trkpt lat="47.711437105" lon="12.121719227">
        <ele>741.2</ele>
      </trkpt>
      <trkpt lat="47.711589475" lon="12.121741668">
        <ele>733.8</ele>
      </trkpt>
      <trkpt lat="47.712618637" lon="12.123603232">
        <ele>691.0</ele>
      </trkpt>
      <trkpt lat="47.712852143" lon="12.123950542">
        <ele>683.8</ele>
      </trkpt>
      <trkpt lat="47.713048624" lon="12.124335641">
        <ele>679.0</ele>
      </trkpt>
      <trkpt lat="47.713952415" lon="12.125843120">
        <ele>673.5</ele>
      </trkpt>
      <trkpt lat="47.714229383" lon="12.126246387">
        <ele>681.0</ele>
      </trkpt>
      <trkpt lat="47.714548459" lon="12.126425501">
        <ele>678.4</ele>
      </trkpt>
      <trkpt lat="47.714700736" lon="12.126781306">
        <ele>674.2</ele>
      </trkpt>
      <trkpt lat="47.714761084" lon="12.126878259">
        <ele>671.1</ele>
      </trkpt>
      <trkpt lat="47.714931421" lon="12.126901794">
        <ele>663.7</ele>
      </trkpt>
      <trkpt lat="47.715124447" lon="12.126753343">
        <ele>657.2</ele>
      </trkpt>
      <trkpt lat="47.715279720" lon="12.126669301">
        <ele>653.0</ele>
      </trkpt>
      <trkpt lat="47.715394336" lon="12.126756170">
        <ele>648.2</ele>
      </trkpt>
      <trkpt lat="47.715413664" lon="12.127037349">
        <ele>645.0</ele>
      </trkpt>
      <trkpt lat="47.715358575" lon="12.127407411">
        <ele>644.4</ele>
      </trkpt>
      <trkpt lat="47.715288785" lon="12.127656582">
        <ele>644.2</ele>
      </trkpt>
      <trkpt lat="47.715221901" lon="12.127799253">
        <ele>644.1</ele>
      </trkpt>
      <trkpt lat="47.715129879" lon="12.127873747">
        <ele>646.2</ele>
      </trkpt>
      <trkpt lat="47.714990394" lon="12.128038736">
        <ele>648.0</ele>
      </trkpt>
      <trkpt lat="47.714709872" lon="12.128755310">
        <ele>636.7</ele>
      </trkpt>
      <trkpt lat="47.714647610" lon="12.129058264">
        <ele>627.9</ele>
      </trkpt>
      <trkpt lat="47.714615571" lon="12.129243022">
        <ele>621.8</ele>
      </trkpt>
      <trkpt lat="47.714680075" lon="12.129846925">
        <ele>600.9</ele>
      </trkpt>
      <trkpt lat="47.714819461" lon="12.130015290">
        <ele>589.0</ele>
      </trkpt>
      <trkpt lat="47.714896060" lon="12.129846537">
        <ele>591.1</ele>
      </trkpt>
      <trkpt lat="47.715053516" lon="12.129682630">
        <ele>592.5</ele>
      </trkpt>
      <trkpt lat="47.715191549" lon="12.129570895">
        <ele>592.2</ele>
      </trkpt>
      <trkpt lat="47.715373414" lon="12.129501790">
        <ele>588.0</ele>
      </trkpt>
      <trkpt lat="47.715553461" lon="12.129499247">
        <ele>580.1</ele>
      </trkpt>
      <trkpt lat="47.715809743" lon="12.129341260">
        <ele>573.3</ele>
      </trkpt>
      <trkpt lat="47.715879073" lon="12.129438756">
        <ele>566.0</ele>
      </trkpt>
      <trkpt lat="47.715789856" lon="12.129740101">
        <ele>559.6</ele>
      </trkpt>
      <trkpt lat="47.715809903" lon="12.129994657">
        <ele>548.7</ele>
      </trkpt>
      <trkpt lat="47.715750546" lon="12.130191116">
        <ele>545.2</ele>
      </trkpt>
      <trkpt lat="47.715534822" lon="12.130511542">
        <ele>545.3</ele>
      </trkpt>
      <trkpt lat="47.715586546" lon="12.130594650">
        <ele>541.0</ele>
      </trkpt>
      <trkpt lat="47.715757973" lon="12.130578259">
        <ele>534.7</ele>
      </trkpt>
      <trkpt lat="47.715959260" lon="12.130456983">
        <ele>529.0</ele>
      </trkpt>
      <trkpt lat="47.716375908" lon="12.130028588">
        <ele>521.6</ele>
      </trkpt>
      <trkpt lat="47.716735741" lon="12.129703458">
        <ele>504.7</ele>
      </trkpt>
      <trkpt lat="47.716965634" lon="12.128863815">
        <ele>500.5</ele>
      </trkpt>
      <trkpt lat="47.717078168" lon="12.128697207">
        <ele>497.8</ele>
      </trkpt>
      <trkpt lat="47.717689289" lon="12.128067082">
        <ele>483.3</ele>
      </trkpt>
      <trkpt lat="47.717577580" lon="12.127873701">
        <ele>483.9</ele>
      </trkpt>
      <trkpt lat="47.717553533" lon="12.127765581">
        <ele>484.3</ele>
      </trkpt>
      <trkpt lat="47.717686213" lon="12.127520166">
        <ele>483.4</ele>
      </trkpt>
    </trkseg>
  </trk>
</gpx>
